sensor_id;sensor_type;location;lat;lon;timestamp;P1;durP1;ratioP1;P2;durP2;ratioP2
35442;SDS011;21561;55.654;37.592;2022-08-01T20:52:12;13.63;;;3.13;;
35442;SDS011;21561;55.654;37.592;2022-08-01T20:54:39;10.57;;;3.17;;
35442;SDS011;21561;55.654;37.592;2022-08-01T20:57:11;14.27;;;3.58;;
35442;SDS011;21561;55.654;37.592;2022-08-01T20:59:53;15.30;;;3.63;;
35442;SDS011;21561;55.654;37.592;2022-08-01T21:02:34;12.57;;;3.10;;
35442;SDS011;21561;55.654;37.592;2022-08-01T21:05:10;10.00;;;3.08;;
35442;SDS011;21561;55.654;37.592;2022-08-01T21:10:11;12.43;;;3.33;;
35442;SDS011;21561;55.654;37.592;2022-08-01T21:12:47;11.80;;;3.42;;
35442;SDS011;21561;55.654;37.592;2022-08-01T21:18:03;15.00;;;3.47;;
35442;SDS011;21561;55.654;37.592;2022-08-01T21:20:38;15.35;;;3.17;;
35442;SDS011;21561;55.654;37.592;2022-08-01T21:23:09;10.48;;;3.13;;
35442;SDS011;21561;55.654;37.592;2022-08-01T21:25:58;9.48;;;3.03;;
35442;SDS011;21561;55.654;37.592;2022-08-01T21:28:26;10.93;;;3.10;;
35442;SDS011;21561;55.654;37.592;2022-08-01T21:30:57;13.07;;;3.20;;
35442;SDS011;21561;55.654;37.592;2022-08-01T21:33:26;12.32;;;3.50;;
35442;SDS011;21561;55.654;37.592;2022-08-01T21:35:54;10.90;;;3.53;;
35442;SDS011;21561;55.654;37.592;2022-08-01T21:38:29;13.15;;;3.50;;
35442;SDS011;21561;55.654;37.592;2022-08-01T21:40:58;14.32;;;3.50;;
35442;SDS011;21561;55.654;37.592;2022-08-01T21:43:30;15.18;;;3.95;;
35442;SDS011;21561;55.654;37.592;2022-08-01T21:45:58;14.82;;;3.75;;
35442;SDS011;21561;55.654;37.592;2022-08-01T21:48:26;14.95;;;3.65;;
35442;SDS011;21561;55.654;37.592;2022-08-01T22:01:47;19.77;;;4.50;;
35442;SDS011;21561;55.654;37.592;2022-08-01T22:04:22;15.80;;;4.30;;
35442;SDS011;21561;55.654;37.592;2022-08-01T22:07:03;13.93;;;4.35;;
35442;SDS011;21561;55.654;37.592;2022-08-01T22:09:39;17.67;;;3.70;;
35442;SDS011;21561;55.654;37.592;2022-08-01T22:12:18;17.33;;;4.60;;
35442;SDS011;21561;55.654;37.592;2022-08-01T22:14:48;14.63;;;4.30;;
35442;SDS011;21561;55.654;37.592;2022-08-01T22:17:20;18.10;;;6.07;;
35442;SDS011;21561;55.654;37.592;2022-08-01T22:19:51;19.38;;;5.88;;
35442;SDS011;21561;55.654;37.592;2022-08-01T22:22:21;18.85;;;5.25;;
35442;SDS011;21561;55.654;37.592;2022-08-01T22:25:08;18.63;;;5.07;;
35442;SDS011;21561;55.654;37.592;2022-08-01T22:27:37;20.70;;;5.30;;
35442;SDS011;21561;55.654;37.592;2022-08-01T22:30:27;22.27;;;5.57;;
35442;SDS011;21561;55.654;37.592;2022-08-01T22:32:54;24.52;;;6.65;;
35442;SDS011;21561;55.654;37.592;2022-08-01T22:35:45;15.77;;;4.75;;
35442;SDS011;21561;55.654;37.592;2022-08-01T22:38:18;16.83;;;5.28;;
35442;SDS011;21561;55.654;37.592;2022-08-01T22:40:52;16.17;;;4.85;;
35442;SDS011;21561;55.654;37.592;2022-08-01T22:46:20;15.02;;;4.47;;
35442;SDS011;21561;55.654;37.592;2022-08-01T22:52:03;16.63;;;4.70;;
35442;SDS011;21561;55.654;37.592;2022-08-01T22:54:46;18.85;;;4.88;;
35442;SDS011;21561;55.654;37.592;2022-08-01T22:57:34;16.73;;;4.50;;
35442;SDS011;21561;55.654;37.592;2022-08-01T23:00:15;18.38;;;4.70;;
35442;SDS011;21561;55.654;37.592;2022-08-01T23:02:44;17.10;;;4.70;;
35442;SDS011;21561;55.654;37.592;2022-08-01T23:05:17;16.23;;;4.20;;
35442;SDS011;21561;55.654;37.592;2022-08-01T23:07:54;15.95;;;4.28;;
35442;SDS011;21561;55.654;37.592;2022-08-01T23:10:23;14.65;;;3.63;;
35442;SDS011;21561;55.654;37.592;2022-08-01T23:12:52;14.00;;;3.95;;
35442;SDS011;21561;55.654;37.592;2022-08-01T23:15:21;15.43;;;4.03;;
35442;SDS011;21561;55.654;37.592;2022-08-01T23:17:48;14.75;;;3.70;;
35442;SDS011;21561;55.654;37.592;2022-08-01T23:20:16;14.02;;;3.63;;
35442;SDS011;21561;55.654;37.592;2022-08-01T23:22:43;16.40;;;4.25;;
35442;SDS011;21561;55.654;37.592;2022-08-01T23:25:11;11.95;;;3.35;;
35442;SDS011;21561;55.654;37.592;2022-08-01T23:27:41;13.38;;;3.58;;
35442;SDS011;21561;55.654;37.592;2022-08-01T23:30:30;17.67;;;3.42;;
35442;SDS011;21561;55.654;37.592;2022-08-01T23:32:58;13.20;;;3.58;;
35442;SDS011;21561;55.654;37.592;2022-08-01T23:35:25;11.50;;;3.20;;
35442;SDS011;21561;55.654;37.592;2022-08-01T23:37:53;11.77;;;3.75;;
35442;SDS011;21561;55.654;37.592;2022-08-01T23:40:28;13.18;;;3.22;;
35442;SDS011;21561;55.654;37.592;2022-08-01T23:43:00;12.88;;;3.90;;
35442;SDS011;21561;55.654;37.592;2022-08-01T23:45:29;11.50;;;3.22;;
35442;SDS011;21561;55.654;37.592;2022-08-01T23:48:16;13.40;;;3.40;;
35442;SDS011;21561;55.654;37.592;2022-08-01T23:50:43;15.70;;;3.35;;
35442;SDS011;21561;55.654;37.592;2022-08-01T23:53:10;12.70;;;3.63;;
35442;SDS011;21561;55.654;37.592;2022-08-01T23:55:38;13.68;;;3.45;;
35442;SDS011;21561;55.654;37.592;2022-08-01T23:58:08;10.05;;;3.15;;
